createdAt,value
2022-10-05T00:00:30.164Z,101384.41
2022-10-05T00:02:58.223Z,101385.38
2022-10-05T00:05:32.155Z,101385.16
2022-10-05T00:08:12.782Z,101386.03
2022-10-05T00:10:42.363Z,101381.41
2022-10-05T00:13:16.248Z,101391.25
2022-10-05T00:15:44.562Z,101385.38
2022-10-05T00:18:15.945Z,101371.91
2022-10-05T00:20:44.464Z,101372.66
2022-10-05T00:23:18.337Z,101362.03
2022-10-05T00:25:48.402Z,101356.94
2022-10-05T00:28:22.375Z,101374.94
2022-10-05T00:30:50.369Z,101379.31
2022-10-05T00:33:18.192Z,101375.47
2022-10-05T00:35:46.270Z,101365.91
2022-10-05T00:38:14.103Z,101375.72
2022-10-05T00:40:53.505Z,101373.31
2022-10-05T00:43:45.091Z,101375.75
2022-10-05T00:46:19.710Z,101368.63
2022-10-05T00:48:57.218Z,101374.72
2022-10-05T00:51:30.919Z,101369.16
2022-10-05T00:54:22.795Z,101353.72
2022-10-05T00:57:09.242Z,101349.19
2022-10-05T00:59:52.509Z,101353.81
2022-10-05T01:02:32.988Z,101349.41
2022-10-05T01:05:10.581Z,101339.09
2022-10-05T01:07:48.783Z,101338.63
2022-10-05T01:10:26.649Z,101340.03
2022-10-05T01:13:02.232Z,101335.19
2022-10-05T01:15:38.347Z,101331.97
2022-10-05T01:18:14.507Z,101331.75
2022-10-05T01:20:55.250Z,101351.31
2022-10-05T01:23:38.042Z,101350.66
2022-10-05T01:26:26.518Z,101344.41
2022-10-05T01:29:03.415Z,101330.69
2022-10-05T01:31:39.698Z,101318.81
2022-10-05T01:34:14.234Z,101306.03
2022-10-05T01:36:55.622Z,101312.41
2022-10-05T01:39:28.541Z,101332.72
2022-10-05T01:42:07.875Z,101332.38
2022-10-05T01:44:44.421Z,101325.97
2022-10-05T01:47:18.597Z,101334.38
2022-10-05T01:49:54.120Z,101338.19
2022-10-05T01:52:33.994Z,101327.88
2022-10-05T01:55:14.510Z,101314.00
2022-10-05T01:57:51.461Z,101324.31
2022-10-05T02:00:21.218Z,101330.06
2022-10-05T02:02:53.448Z,101335.31
2022-10-05T02:05:24.356Z,101331.91
2022-10-05T02:07:57.740Z,101337.91
2022-10-05T02:10:31.902Z,101336.34
2022-10-05T02:13:11.493Z,101343.94
2022-10-05T02:15:45.671Z,101335.94
2022-10-05T02:18:20.883Z,101343.94
2022-10-05T02:20:51.993Z,101341.56
2022-10-05T02:23:24.161Z,101345.72
2022-10-05T02:25:53.787Z,101338.03
2022-10-05T02:28:25.950Z,101337.81
2022-10-05T02:30:59.657Z,101342.97
2022-10-05T02:33:30.787Z,101335.41
2022-10-05T02:36:05.380Z,101341.22
2022-10-05T02:38:41.922Z,101326.94
2022-10-05T02:41:18.373Z,101334.81
2022-10-05T02:43:55.230Z,101340.63
2022-10-05T02:46:34.821Z,101344.00
2022-10-05T02:49:15.752Z,101338.66
2022-10-05T02:51:51.904Z,101336.69
2022-10-05T02:54:40.358Z,101336.22
2022-10-05T02:57:13.627Z,101329.56
2022-10-05T02:59:45.620Z,101338.25
2022-10-05T03:02:22.370Z,101335.06
2022-10-05T03:05:07.393Z,101324.75
2022-10-05T03:07:38.652Z,101324.88
2022-10-05T03:10:12.515Z,101316.03
2022-10-05T03:12:50.757Z,101320.53
2022-10-05T03:15:34.108Z,101325.88
2022-10-05T03:18:14.158Z,101325.50
2022-10-05T03:20:49.760Z,101318.47
2022-10-05T03:23:22.735Z,101317.81
2022-10-05T03:26:11.207Z,101317.91
2022-10-05T03:28:51.665Z,101304.34
2022-10-05T03:31:26.623Z,101306.88
2022-10-05T03:33:58.116Z,101299.91
2022-10-05T03:36:33.048Z,101303.78
2022-10-05T03:39:08.850Z,101299.38
2022-10-05T03:41:45.016Z,101295.13
2022-10-05T03:44:27.337Z,101293.44
2022-10-05T03:47:12.542Z,101295.13
2022-10-05T03:49:58.111Z,101289.34
2022-10-05T03:52:35.171Z,101291.19
2022-10-05T03:55:10.340Z,101285.66
2022-10-05T03:57:41.304Z,101277.84
2022-10-05T04:00:16.057Z,101281.63
2022-10-05T04:02:55.210Z,101274.00
2022-10-05T04:05:28.149Z,101265.16
2022-10-05T04:08:05.738Z,101267.88
2022-10-05T04:10:40.957Z,101265.63
2022-10-05T04:13:15.272Z,101272.13
2022-10-05T04:15:50.961Z,101269.06
2022-10-05T04:18:26.803Z,101267.44
2022-10-05T04:21:02.330Z,101270.47
2022-10-05T04:23:41.857Z,101274.97
2022-10-05T04:26:15.088Z,101268.00
2022-10-05T04:28:51.332Z,101279.59
2022-10-05T04:31:34.332Z,101269.66
2022-10-05T04:34:15.148Z,101270.03
2022-10-05T04:36:48.984Z,101273.69
2022-10-05T04:39:24.838Z,101271.53
2022-10-05T04:42:07.444Z,101272.28
2022-10-05T04:45:01.419Z,101269.63
2022-10-05T04:47:48.324Z,101269.34
2022-10-05T04:50:37.221Z,101274.19
2022-10-05T04:53:23.232Z,101265.25
2022-10-05T04:55:58.058Z,101275.34
2022-10-05T04:58:42.229Z,101270.47
2022-10-05T05:01:27.615Z,101275.41
2022-10-05T05:04:14.301Z,101285.81
2022-10-05T05:06:49.542Z,101274.84
2022-10-05T05:09:52.113Z,101272.22
2022-10-05T05:12:29.018Z,101267.09
2022-10-05T05:15:19.772Z,101267.34
2022-10-05T05:18:01.666Z,101265.31
2022-10-05T05:20:42.449Z,101264.13
2022-10-05T05:23:18.854Z,101266.13
2022-10-05T05:25:57.804Z,101269.50
2022-10-05T05:28:34.587Z,101273.50
2022-10-05T05:31:11.392Z,101279.50
2022-10-05T05:33:50.788Z,101268.97
2022-10-05T05:36:34.443Z,101270.09
2022-10-05T05:39:28.821Z,101261.09
2022-10-05T05:42:02.944Z,101254.13
2022-10-05T05:44:38.921Z,101241.75
2022-10-05T05:47:18.684Z,101242.19
2022-10-05T05:50:06.615Z,101233.84
2022-10-05T05:52:42.003Z,101243.63
2022-10-05T05:55:17.797Z,101252.16
2022-10-05T05:57:55.704Z,101244.25
2022-10-05T06:00:28.589Z,101264.03
2022-10-05T06:03:09.204Z,101260.88
2022-10-05T06:05:43.025Z,101257.81
2022-10-05T06:08:17.841Z,101251.91
2022-10-05T06:10:53.519Z,101258.47
2022-10-05T06:13:28.468Z,101255.44
2022-10-05T06:16:00.609Z,101259.75
2022-10-05T06:18:32.489Z,101262.06
2022-10-05T06:21:04.513Z,101269.31
2022-10-05T06:23:44.065Z,101267.13
2022-10-05T06:26:34.840Z,101263.25
2022-10-05T06:29:10.024Z,101267.38
2022-10-05T06:31:59.177Z,101270.75
2022-10-05T06:34:42.771Z,101271.81
2022-10-05T06:37:18.740Z,101279.91
2022-10-05T06:40:01.532Z,101273.28
2022-10-05T06:42:52.414Z,101273.09
2022-10-05T06:46:03.732Z,101279.50
2022-10-05T06:49:18.397Z,101281.63
2022-10-05T06:52:14.934Z,101269.47
2022-10-05T06:54:54.116Z,101273.06
2022-10-05T06:57:46.545Z,101279.38
2022-10-05T07:00:20.482Z,101288.84
2022-10-05T07:02:58.368Z,101289.72
2022-10-05T07:05:53.944Z,101285.06
2022-10-05T07:08:34.674Z,101281.16
2022-10-05T07:11:11.407Z,101282.50
2022-10-05T07:14:05.764Z,101284.72
2022-10-05T07:16:47.425Z,101285.06
2022-10-05T07:19:35.636Z,101284.09
2022-10-05T07:22:33.431Z,101289.44
2022-10-05T07:25:09.954Z,101285.22
2022-10-05T07:27:45.302Z,101285.31
2022-10-05T07:30:16.238Z,101282.69
2022-10-05T07:32:52.741Z,101276.03
2022-10-05T07:35:48.425Z,101282.56
2022-10-05T07:38:22.053Z,101286.16
2022-10-05T07:40:55.134Z,101295.50
2022-10-05T07:43:57.643Z,101278.72
2022-10-05T07:46:25.250Z,101281.66
2022-10-05T07:49:03.254Z,101287.38
2022-10-05T07:51:37.423Z,101286.09
2022-10-05T07:54:16.876Z,101300.22
2022-10-05T07:56:50.131Z,101308.84
2022-10-05T07:59:28.393Z,101297.13
2022-10-05T08:02:06.836Z,101283.94
2022-10-05T08:04:45.989Z,101291.97
2022-10-05T08:07:18.165Z,101295.41
2022-10-05T08:09:54.640Z,101290.25
2022-10-05T08:12:31.787Z,101305.63
2022-10-05T08:15:04.020Z,101293.63
2022-10-05T08:17:43.619Z,101291.13
2022-10-05T08:20:26.893Z,101266.13
2022-10-05T08:23:01.821Z,101254.84
2022-10-05T08:25:41.251Z,101253.28
2022-10-05T08:28:18.584Z,101252.22
2022-10-05T08:30:57.819Z,101247.78
2022-10-05T08:33:32.284Z,101250.91
2022-10-05T08:36:04.421Z,101247.75
2022-10-05T08:38:35.330Z,101242.59
2022-10-05T08:41:42.615Z,101233.34
2022-10-05T08:45:07.691Z,101235.94
2022-10-05T08:48:07.741Z,101237.53
2022-10-05T08:51:04.474Z,101236.16
2022-10-05T08:54:03.750Z,101229.97
2022-10-05T08:56:42.902Z,101229.84
2022-10-05T08:59:38.692Z,101223.94
2022-10-05T09:02:24.503Z,101227.19
2022-10-05T09:05:21.170Z,101222.09
2022-10-05T09:08:24.088Z,101228.16
2022-10-05T09:11:08.059Z,101220.75
2022-10-05T09:14:23.274Z,101227.94
2022-10-05T09:17:02.864Z,101220.81
2022-10-05T09:19:53.933Z,101224.19
2022-10-05T09:22:37.888Z,101228.13
2022-10-05T09:25:22.774Z,101213.25
2022-10-05T09:27:58.207Z,101220.75
2022-10-05T09:30:48.010Z,101213.84
2022-10-05T09:33:55.618Z,101212.09
2022-10-05T09:37:09.461Z,101202.47
2022-10-05T09:40:32.045Z,101206.56
2022-10-05T09:43:17.100Z,101200.56
2022-10-05T09:46:30.849Z,101206.75
2022-10-05T09:49:30.770Z,101201.69
2022-10-05T09:52:25.611Z,101196.94
2022-10-05T09:55:20.699Z,101199.50
2022-10-05T09:58:28.351Z,101197.97
2022-10-05T10:01:36.407Z,101199.00
2022-10-05T10:04:29.643Z,101192.72
2022-10-05T10:07:43.248Z,101194.53
2022-10-05T10:10:55.455Z,101190.50
2022-10-05T10:13:53.337Z,101194.69
2022-10-05T10:16:36.534Z,101188.88
2022-10-05T10:19:20.789Z,101182.94
2022-10-05T10:22:07.660Z,101179.16
2022-10-05T10:24:52.038Z,101179.69
2022-10-05T10:27:34.765Z,101181.91
2022-10-05T10:30:37.609Z,101178.16
2022-10-05T10:33:27.811Z,101189.94
2022-10-05T10:36:06.018Z,101186.72
2022-10-05T10:38:42.526Z,101207.41
2022-10-05T10:41:41.526Z,101192.69
2022-10-05T10:44:37.963Z,101201.94
2022-10-05T10:47:29.114Z,101202.22
2022-10-05T10:50:29.280Z,101192.13
2022-10-05T10:53:10.165Z,101193.63
2022-10-05T10:55:43.357Z,101198.66
2022-10-05T10:58:52.193Z,101194.00
2022-10-05T11:01:38.246Z,101198.31
2022-10-05T11:04:24.283Z,101200.44
2022-10-05T11:07:21.238Z,101189.38
2022-10-05T11:10:04.943Z,101179.50
2022-10-05T11:13:06.916Z,101181.44
2022-10-05T11:16:00.697Z,101172.38
2022-10-05T11:18:44.675Z,101169.16
2022-10-05T11:21:30.294Z,101165.03
2022-10-05T11:24:30.576Z,101173.84
2022-10-05T11:30:22.979Z,101158.75
2022-10-05T11:33:20.307Z,101159.03
2022-10-05T11:36:01.392Z,101152.50
2022-10-05T11:39:02.043Z,101153.59
2022-10-05T11:42:00.336Z,101146.94
2022-10-05T11:45:01.531Z,101139.09
2022-10-05T11:47:33.081Z,101153.75
2022-10-05T11:50:12.437Z,101140.19
2022-10-05T11:52:47.850Z,101135.03
2022-10-05T11:55:27.427Z,101148.72
2022-10-05T11:57:58.756Z,101140.84
2022-10-05T12:00:35.516Z,101138.50
2022-10-05T12:03:29.078Z,101139.19
2022-10-05T12:06:38.797Z,101139.31
2022-10-05T12:09:20.376Z,101127.66
2022-10-05T12:12:04.133Z,101124.59
2022-10-05T12:14:44.494Z,101122.56
2022-10-05T12:17:23.669Z,101123.72
2022-10-05T12:19:55.666Z,101124.13
2022-10-05T12:22:30.803Z,101124.38
2022-10-05T12:25:07.976Z,101133.31
2022-10-05T12:27:42.123Z,101125.66
2022-10-05T12:30:17.933Z,101119.66
2022-10-05T12:33:02.500Z,101112.03
2022-10-05T12:35:47.771Z,101106.34
2022-10-05T12:38:28.438Z,101100.28
2022-10-05T12:41:05.140Z,101104.06
2022-10-05T12:43:44.768Z,101099.06
2022-10-05T12:46:22.423Z,101101.16
2022-10-05T12:49:00.630Z,101105.31
2022-10-05T12:51:37.831Z,101092.00
2022-10-05T12:54:16.937Z,101096.81
2022-10-05T12:56:53.659Z,101089.13
2022-10-05T12:59:36.621Z,101094.22
2022-10-05T13:02:12.905Z,101084.16
2022-10-05T13:04:50.030Z,101085.34
2022-10-05T13:07:42.269Z,101086.66
2022-10-05T13:10:28.015Z,101082.63
2022-10-05T13:13:06.785Z,101077.91
2022-10-05T13:15:46.437Z,101087.25
2022-10-05T13:18:22.878Z,101087.44
2022-10-05T13:21:02.759Z,101081.00
2022-10-05T13:23:39.835Z,101075.84
2022-10-05T13:26:12.465Z,101073.31
2022-10-05T13:28:45.800Z,101072.00
2022-10-05T13:31:20.964Z,101068.06
2022-10-05T13:34:15.036Z,101075.97
2022-10-05T13:36:54.702Z,101070.81
2022-10-05T13:39:35.782Z,101073.31
2022-10-05T13:42:10.330Z,101065.94
2022-10-05T13:44:46.690Z,101068.38
2022-10-05T13:47:26.546Z,101058.66
2022-10-05T13:49:58.059Z,101064.00
2022-10-05T13:52:38.148Z,101062.78
2022-10-05T13:55:17.789Z,101058.19
2022-10-05T13:57:57.860Z,101053.66
2022-10-05T14:00:27.446Z,101062.06
2022-10-05T14:02:58.462Z,101058.84
2022-10-05T14:05:28.253Z,101054.72
2022-10-05T14:07:58.466Z,101055.78
2022-10-05T14:10:35.728Z,101046.72
2022-10-05T14:13:21.317Z,101052.41
2022-10-05T14:16:07.555Z,101045.44
2022-10-05T14:18:39.292Z,101046.44
2022-10-05T14:21:22.091Z,101044.78
2022-10-05T14:23:50.365Z,101042.56
2022-10-05T14:26:20.720Z,101041.75
2022-10-05T14:28:59.444Z,101045.25
2022-10-05T14:31:36.408Z,101045.91
2022-10-05T14:34:35.613Z,101028.72
2022-10-05T14:37:10.034Z,101030.41
2022-10-05T14:39:42.273Z,101028.22
2022-10-05T14:42:19.359Z,101025.56
2022-10-05T14:44:59.848Z,101020.03
2022-10-05T14:47:31.861Z,101020.56
2022-10-05T14:50:17.719Z,101001.19
2022-10-05T14:52:51.848Z,101003.38
2022-10-05T14:55:37.245Z,101001.38
2022-10-05T14:58:19.071Z,101000.03
2022-10-05T15:00:55.459Z,100996.38
2022-10-05T15:03:43.321Z,100997.03
2022-10-05T15:06:21.456Z,100992.78
2022-10-05T15:09:16.982Z,100984.50
2022-10-05T15:11:51.757Z,100988.03
2022-10-05T15:14:23.365Z,100986.00
2022-10-05T15:16:53.862Z,100990.00
2022-10-05T15:19:28.322Z,100994.31
2022-10-05T15:22:18.668Z,100993.81
2022-10-05T15:25:01.682Z,100994.13
2022-10-05T15:27:38.841Z,100991.13
2022-10-05T15:30:12.446Z,100991.44
2022-10-05T15:33:04.328Z,100992.09
2022-10-05T15:35:49.945Z,100994.09
2022-10-05T15:38:25.791Z,100993.44
2022-10-05T15:41:03.434Z,100993.06
2022-10-05T15:43:48.059Z,100989.56
2022-10-05T15:46:19.341Z,100993.69
2022-10-05T15:48:53.216Z,100987.19
2022-10-05T15:51:31.845Z,100994.66
2022-10-05T15:54:25.008Z,100993.09
2022-10-05T15:56:58.373Z,100990.44
2022-10-05T15:59:35.262Z,100992.78
2022-10-05T16:02:15.589Z,100987.25
2022-10-05T16:04:52.040Z,100985.06
2022-10-05T16:07:41.469Z,100994.56
2022-10-05T16:10:17.031Z,100993.44
2022-10-05T16:12:55.259Z,100992.19
2022-10-05T16:15:29.861Z,100989.41
2022-10-05T16:18:10.035Z,100987.44
2022-10-05T16:20:46.580Z,100985.34
2022-10-05T16:23:25.635Z,100983.00
2022-10-05T16:26:07.855Z,100980.72
2022-10-05T16:28:44.683Z,100980.44
2022-10-05T16:31:18.816Z,100978.19
2022-10-05T16:33:54.380Z,100976.13
2022-10-05T16:36:40.097Z,100975.25
2022-10-05T16:39:16.766Z,100973.88
2022-10-05T16:41:54.197Z,100965.34
2022-10-05T16:44:33.485Z,100970.34
2022-10-05T16:47:08.387Z,100963.94
2022-10-05T16:49:58.945Z,100962.75
2022-10-05T16:52:27.900Z,100969.94
2022-10-05T16:55:00.162Z,100966.06
2022-10-05T16:57:35.194Z,100965.50
2022-10-05T17:00:17.216Z,100965.28
2022-10-05T17:03:02.707Z,100967.09
2022-10-05T17:05:51.202Z,100966.38
2022-10-05T17:08:41.939Z,100971.31
2022-10-05T17:11:22.775Z,100975.25
2022-10-05T17:14:08.370Z,100973.72
2022-10-05T17:16:47.946Z,100970.78
2022-10-05T17:19:35.144Z,100981.00
2022-10-05T17:22:12.548Z,100979.75
2022-10-05T17:24:53.135Z,100979.63
2022-10-05T17:27:32.802Z,100977.22
2022-10-05T17:30:22.356Z,100982.66
2022-10-05T17:32:59.086Z,100983.94
2022-10-05T17:35:56.936Z,100985.03
2022-10-05T17:38:50.533Z,100988.41
2022-10-05T17:41:22.169Z,100993.44
2022-10-05T17:44:35.933Z,100985.63
2022-10-05T17:47:09.009Z,100992.31
2022-10-05T17:50:08.782Z,100988.97
2022-10-05T17:52:56.750Z,100992.44
2022-10-05T17:55:44.747Z,100998.06
2022-10-05T17:59:01.851Z,100989.22
2022-10-05T18:01:32.721Z,100988.91
2022-10-05T18:04:33.566Z,100983.66
2022-10-05T18:07:05.695Z,100983.81
2022-10-05T18:09:54.017Z,100976.41
2022-10-05T18:12:45.323Z,100985.75
2022-10-05T18:15:48.697Z,100982.25
2022-10-05T18:18:55.983Z,100975.16
2022-10-05T18:21:35.696Z,100973.72
2022-10-05T18:25:03.657Z,100972.56
2022-10-05T18:28:05.366Z,100973.38
2022-10-05T18:30:41.463Z,100974.00
2022-10-05T18:33:42.464Z,100981.66
2022-10-05T18:36:22.251Z,100987.09
2022-10-05T18:39:01.106Z,100979.78
2022-10-05T18:41:40.188Z,100981.38
2022-10-05T18:44:32.783Z,100981.63
2022-10-05T18:47:10.106Z,100982.88
2022-10-05T18:49:51.803Z,100973.97
2022-10-05T18:52:29.579Z,100981.09
2022-10-05T18:55:12.373Z,100979.56
2022-10-05T18:57:52.494Z,100983.56
2022-10-05T19:00:22.816Z,100977.59
2022-10-05T19:02:57.222Z,100975.00
2022-10-05T19:05:54.467Z,100971.22
2022-10-05T19:08:33.912Z,100973.16
2022-10-05T19:11:15.419Z,100968.50
2022-10-05T19:13:52.588Z,100973.31
2022-10-05T19:16:49.329Z,100976.78
2022-10-05T19:19:45.060Z,100979.44
2022-10-05T19:22:25.387Z,100989.22
2022-10-05T19:25:21.671Z,100989.88
2022-10-05T19:28:03.701Z,100998.13
2022-10-05T19:30:44.621Z,101001.34
2022-10-05T19:33:25.948Z,101006.88
2022-10-05T19:36:14.761Z,101003.72
2022-10-05T19:38:55.264Z,101006.78
2022-10-05T19:41:31.870Z,101009.03
2022-10-05T19:44:19.321Z,101022.13
2022-10-05T19:47:02.704Z,101024.13
2022-10-05T19:49:50.007Z,101026.59
2022-10-05T19:52:24.119Z,101030.94
2022-10-05T19:55:14.533Z,101027.00
2022-10-05T19:57:50.038Z,101033.28
2022-10-05T20:00:26.112Z,101030.78
2022-10-05T20:03:10.659Z,101031.03
2022-10-05T20:05:39.079Z,101037.78
2022-10-05T20:08:08.257Z,101044.03
2022-10-05T20:10:36.565Z,101044.72
2022-10-05T20:13:08.673Z,101043.56
2022-10-05T20:15:55.540Z,101048.47
2022-10-05T20:19:21.428Z,101041.06
2022-10-05T20:21:50.113Z,101053.91
2022-10-05T20:24:19.729Z,101057.78
2022-10-05T20:27:16.154Z,101067.88
2022-10-05T20:29:45.704Z,101074.53
2022-10-05T20:32:17.999Z,101063.94
2022-10-05T20:34:56.731Z,101076.66
2022-10-05T20:37:25.218Z,101072.59
2022-10-05T20:39:53.176Z,101076.25
2022-10-05T20:42:22.938Z,101083.34
2022-10-05T20:44:55.824Z,101086.59
2022-10-05T20:47:26.894Z,101080.44
2022-10-05T20:49:55.324Z,101093.03
2022-10-05T20:52:23.851Z,101096.09
2022-10-05T20:54:53.813Z,101107.34
2022-10-05T20:57:23.927Z,101100.53
2022-10-05T20:59:52.222Z,101104.34
2022-10-05T21:02:20.528Z,101108.94
2022-10-05T21:04:49.732Z,101111.16
2022-10-05T21:07:19.820Z,101109.03
2022-10-05T21:09:47.656Z,101117.69
2022-10-05T21:12:16.524Z,101113.09
2022-10-05T21:14:44.404Z,101116.31
2022-10-05T21:17:12.481Z,101117.97
2022-10-05T21:19:40.667Z,101117.69
2022-10-05T21:22:10.900Z,101118.13
2022-10-05T21:24:40.850Z,101120.34
2022-10-05T21:27:11.716Z,101114.78
2022-10-05T21:29:41.173Z,101116.50
2022-10-05T21:32:11.423Z,101126.81
2022-10-05T21:34:39.966Z,101126.28
2022-10-05T21:37:09.796Z,101121.25
2022-10-05T21:39:37.601Z,101124.72
2022-10-05T21:42:05.638Z,101128.94
2022-10-05T21:44:33.452Z,101135.06
2022-10-05T21:47:01.861Z,101134.81
2022-10-05T21:49:29.989Z,101137.16
2022-10-05T21:52:01.581Z,101141.91
2022-10-05T21:54:33.633Z,101137.34
2022-10-05T21:57:01.712Z,101137.47
2022-10-05T21:59:33.862Z,101139.72
2022-10-05T22:02:02.359Z,101138.88
2022-10-05T22:04:30.132Z,101136.09
2022-10-05T22:06:57.976Z,101142.66
2022-10-05T22:09:25.852Z,101143.78
2022-10-05T22:11:55.050Z,101140.44
2022-10-05T22:14:23.154Z,101143.94
2022-10-05T22:16:51.038Z,101142.66
2022-10-05T22:19:21.328Z,101144.91
2022-10-05T22:21:49.331Z,101144.06
2022-10-05T22:24:17.174Z,101143.34
2022-10-05T22:26:48.266Z,101141.81
2022-10-05T22:29:18.454Z,101141.25
2022-10-05T22:31:48.682Z,101154.81
2022-10-05T22:34:17.817Z,101154.25
2022-10-05T22:36:45.836Z,101150.97
2022-10-05T22:39:13.890Z,101160.78
2022-10-05T22:41:41.968Z,101159.81
2022-10-05T22:44:09.848Z,101154.34
2022-10-05T22:46:39.034Z,101156.03
2022-10-05T22:49:06.856Z,101154.09
2022-10-05T22:51:34.742Z,101161.44
2022-10-05T22:54:02.585Z,101152.66
2022-10-05T22:56:30.469Z,101156.84
2022-10-05T22:59:05.459Z,101156.84
2022-10-05T23:01:40.398Z,101172.03
2022-10-05T23:04:12.182Z,101172.56
2022-10-05T23:06:40.009Z,101173.84
2022-10-05T23:09:07.838Z,101168.97
2022-10-05T23:11:36.201Z,101172.75
2022-10-05T23:14:03.972Z,101176.94
2022-10-05T23:16:31.796Z,101180.56
2022-10-05T23:19:00.233Z,101179.31
2022-10-05T23:21:31.044Z,101183.47
2022-10-05T23:23:58.817Z,101176.50
2022-10-05T23:26:27.085Z,101182.06
2022-10-05T23:28:55.154Z,101187.03
2022-10-05T23:31:25.152Z,101177.81
2022-10-05T23:33:53.694Z,101192.91
2022-10-05T23:36:23.253Z,101197.91
2022-10-05T23:38:52.413Z,101188.31
2022-10-05T23:41:20.805Z,101189.69
2022-10-05T23:43:48.714Z,101189.22
2022-10-05T23:46:17.586Z,101205.09
2022-10-05T23:48:45.593Z,101202.88
2022-10-05T23:51:15.909Z,101198.75
2022-10-05T23:53:43.882Z,101203.88
2022-10-05T23:56:13.275Z,101209.00
2022-10-05T23:58:41.765Z,101204.09
